sensor_id;sensor_type;location;lat;lon;timestamp;temperature;humidity
56076;DHT22;41951;49.022;12.066;2024-01-25T00:00:17;8.30;99.90
56076;DHT22;41951;49.022;12.066;2024-01-25T00:02:42;8.30;99.90
56076;DHT22;41951;49.022;12.066;2024-01-25T00:05:08;8.30;99.90
56076;DHT22;41951;49.022;12.066;2024-01-25T00:07:33;8.30;99.90
56076;DHT22;41951;49.022;12.066;2024-01-25T00:09:59;8.30;99.90
56076;DHT22;41951;49.022;12.066;2024-01-25T00:12:24;8.30;99.90
56076;DHT22;41951;49.022;12.066;2024-01-25T00:14:50;8.40;99.90
56076;DHT22;41951;49.022;12.066;2024-01-25T00:17:17;8.30;99.90
56076;DHT22;41951;49.022;12.066;2024-01-25T00:19:43;8.30;99.90
56076;DHT22;41951;49.022;12.066;2024-01-25T00:22:08;8.30;99.90
56076;DHT22;41951;49.022;12.066;2024-01-25T00:24:34;8.30;99.90
56076;DHT22;41951;49.022;12.066;2024-01-25T00:27:00;8.30;99.90
56076;DHT22;41951;49.022;12.066;2024-01-25T00:29:25;8.30;99.90
56076;DHT22;41951;49.022;12.066;2024-01-25T00:31:51;8.30;99.90
56076;DHT22;41951;49.022;12.066;2024-01-25T00:34:17;8.30;99.90
56076;DHT22;41951;49.022;12.066;2024-01-25T00:36:42;8.30;99.90
56076;DHT22;41951;49.022;12.066;2024-01-25T00:39:08;8.30;99.90
56076;DHT22;41951;49.022;12.066;2024-01-25T00:41:34;8.30;99.90
56076;DHT22;41951;49.022;12.066;2024-01-25T00:44:00;8.30;99.90
56076;DHT22;41951;49.022;12.066;2024-01-25T00:46:26;8.20;99.90
56076;DHT22;41951;49.022;12.066;2024-01-25T00:48:52;8.30;99.90
56076;DHT22;41951;49.022;12.066;2024-01-25T00:51:21;8.30;99.90
56076;DHT22;41951;49.022;12.066;2024-01-25T00:53:47;8.20;99.90
56076;DHT22;41951;49.022;12.066;2024-01-25T00:56:13;8.20;99.90
56076;DHT22;41951;49.022;12.066;2024-01-25T00:58:39;8.20;99.90
56076;DHT22;41951;49.022;12.066;2024-01-25T01:01:05;8.20;99.90
56076;DHT22;41951;49.022;12.066;2024-01-25T01:03:31;8.20;99.90
56076;DHT22;41951;49.022;12.066;2024-01-25T01:05:56;8.10;99.90
56076;DHT22;41951;49.022;12.066;2024-01-25T01:08:24;8.20;99.90
56076;DHT22;41951;49.022;12.066;2024-01-25T01:10:50;8.20;99.90
56076;DHT22;41951;49.022;12.066;2024-01-25T01:13:16;8.20;99.90
56076;DHT22;41951;49.022;12.066;2024-01-25T01:15:41;8.10;99.90
56076;DHT22;41951;49.022;12.066;2024-01-25T01:18:07;8.10;99.90
56076;DHT22;41951;49.022;12.066;2024-01-25T01:20:32;8.10;99.90
56076;DHT22;41951;49.022;12.066;2024-01-25T01:22:58;9.20;99.90
56076;DHT22;41951;49.022;12.066;2024-01-25T01:25:23;8.20;99.90
56076;DHT22;41951;49.022;12.066;2024-01-25T01:27:49;8.20;99.90
56076;DHT22;41951;49.022;12.066;2024-01-25T01:30:14;8.20;99.90
56076;DHT22;41951;49.022;12.066;2024-01-25T01:32:40;8.10;99.90
56076;DHT22;41951;49.022;12.066;2024-01-25T01:35:06;8.10;99.90
56076;DHT22;41951;49.022;12.066;2024-01-25T01:37:31;8.10;99.90
56076;DHT22;41951;49.022;12.066;2024-01-25T01:39:57;8.10;99.90
56076;DHT22;41951;49.022;12.066;2024-01-25T01:42:24;8.20;99.90
56076;DHT22;41951;49.022;12.066;2024-01-25T01:44:52;8.10;99.90
56076;DHT22;41951;49.022;12.066;2024-01-25T01:47:18;8.10;99.90
56076;DHT22;41951;49.022;12.066;2024-01-25T01:49:44;8.20;99.90
56076;DHT22;41951;49.022;12.066;2024-01-25T01:52:11;8.20;99.90
56076;DHT22;41951;49.022;12.066;2024-01-25T01:54:37;8.20;99.90
56076;DHT22;41951;49.022;12.066;2024-01-25T01:57:03;8.20;99.90
56076;DHT22;41951;49.022;12.066;2024-01-25T01:59:29;8.10;99.90
56076;DHT22;41951;49.022;12.066;2024-01-25T02:01:55;8.10;99.90
56076;DHT22;41951;49.022;12.066;2024-01-25T02:04:20;8.10;99.90
56076;DHT22;41951;49.022;12.066;2024-01-25T02:06:46;8.10;99.90
56076;DHT22;41951;49.022;12.066;2024-01-25T02:09:12;8.10;99.90
56076;DHT22;41951;49.022;12.066;2024-01-25T02:11:38;8.10;99.90
56076;DHT22;41951;49.022;12.066;2024-01-25T02:14:03;8.10;99.90
56076;DHT22;41951;49.022;12.066;2024-01-25T02:16:29;8.10;99.90
56076;DHT22;41951;49.022;12.066;2024-01-25T02:18:54;8.10;99.90
56076;DHT22;41951;49.022;12.066;2024-01-25T02:21:22;8.10;99.90
56076;DHT22;41951;49.022;12.066;2024-01-25T02:23:48;8.10;99.90
56076;DHT22;41951;49.022;12.066;2024-01-25T02:26:13;8.00;99.90
56076;DHT22;41951;49.022;12.066;2024-01-25T02:28:39;8.00;99.90
56076;DHT22;41951;49.022;12.066;2024-01-25T02:31:04;8.00;99.90
56076;DHT22;41951;49.022;12.066;2024-01-25T02:33:30;8.00;99.90
56076;DHT22;41951;49.022;12.066;2024-01-25T02:35:56;8.00;99.90
56076;DHT22;41951;49.022;12.066;2024-01-25T02:38:21;8.00;99.90
56076;DHT22;41951;49.022;12.066;2024-01-25T02:40:47;8.00;99.90
56076;DHT22;41951;49.022;12.066;2024-01-25T02:43:13;8.00;99.90
56076;DHT22;41951;49.022;12.066;2024-01-25T02:45:38;8.00;99.90
56076;DHT22;41951;49.022;12.066;2024-01-25T02:48:04;7.90;99.90
56076;DHT22;41951;49.022;12.066;2024-01-25T02:50:29;7.90;99.90
56076;DHT22;41951;49.022;12.066;2024-01-25T02:52:55;7.90;99.90
56076;DHT22;41951;49.022;12.066;2024-01-25T02:55:21;7.90;99.90
56076;DHT22;41951;49.022;12.066;2024-01-25T02:57:46;7.90;99.90
56076;DHT22;41951;49.022;12.066;2024-01-25T03:00:12;7.90;99.90
56076;DHT22;41951;49.022;12.066;2024-01-25T03:02:38;7.90;99.90
56076;DHT22;41951;49.022;12.066;2024-01-25T03:05:04;7.90;99.90
56076;DHT22;41951;49.022;12.066;2024-01-25T03:07:29;7.90;99.90
56076;DHT22;41951;49.022;12.066;2024-01-25T03:09:55;7.90;99.90
56076;DHT22;41951;49.022;12.066;2024-01-25T03:12:20;8.50;99.90
56076;DHT22;41951;49.022;12.066;2024-01-25T03:14:47;7.90;99.90
56076;DHT22;41951;49.022;12.066;2024-01-25T03:17:13;7.90;99.90
56076;DHT22;41951;49.022;12.066;2024-01-25T03:19:38;7.90;99.90
56076;DHT22;41951;49.022;12.066;2024-01-25T03:22:04;7.90;99.90
56076;DHT22;41951;49.022;12.066;2024-01-25T03:24:29;7.90;99.90
56076;DHT22;41951;49.022;12.066;2024-01-25T03:26:55;7.90;99.90
56076;DHT22;41951;49.022;12.066;2024-01-25T03:29:20;7.90;99.90
56076;DHT22;41951;49.022;12.066;2024-01-25T03:31:46;7.90;99.90
56076;DHT22;41951;49.022;12.066;2024-01-25T03:34:11;7.90;99.90
56076;DHT22;41951;49.022;12.066;2024-01-25T03:36:38;7.90;99.90
56076;DHT22;41951;49.022;12.066;2024-01-25T03:39:05;7.80;99.90
56076;DHT22;41951;49.022;12.066;2024-01-25T03:41:31;7.80;99.90
56076;DHT22;41951;49.022;12.066;2024-01-25T03:43:56;7.80;99.90
56076;DHT22;41951;49.022;12.066;2024-01-25T03:46:22;7.80;99.90
56076;DHT22;41951;49.022;12.066;2024-01-25T03:48:47;7.80;99.90
56076;DHT22;41951;49.022;12.066;2024-01-25T03:51:13;7.70;99.90
56076;DHT22;41951;49.022;12.066;2024-01-25T03:53:38;7.70;99.90
56076;DHT22;41951;49.022;12.066;2024-01-25T03:56:13;7.70;99.90
56076;DHT22;41951;49.022;12.066;2024-01-25T03:58:39;7.70;99.90
56076;DHT22;41951;49.022;12.066;2024-01-25T04:01:04;7.70;99.90
56076;DHT22;41951;49.022;12.066;2024-01-25T04:03:31;7.70;99.90
56076;DHT22;41951;49.022;12.066;2024-01-25T04:05:56;7.70;99.90
56076;DHT22;41951;49.022;12.066;2024-01-25T04:08:22;7.70;99.90
56076;DHT22;41951;49.022;12.066;2024-01-25T04:10:47;7.60;99.90
56076;DHT22;41951;49.022;12.066;2024-01-25T04:13:16;7.60;99.90
56076;DHT22;41951;49.022;12.066;2024-01-25T04:15:41;7.60;99.90
56076;DHT22;41951;49.022;12.066;2024-01-25T04:18:07;7.60;99.90
56076;DHT22;41951;49.022;12.066;2024-01-25T04:20:32;7.60;99.90
56076;DHT22;41951;49.022;12.066;2024-01-25T04:23:00;7.60;99.90
56076;DHT22;41951;49.022;12.066;2024-01-25T04:25:26;7.50;99.90
56076;DHT22;41951;49.022;12.066;2024-01-25T04:27:51;7.50;99.90
56076;DHT22;41951;49.022;12.066;2024-01-25T04:30:17;7.50;99.90
56076;DHT22;41951;49.022;12.066;2024-01-25T04:32:43;7.60;99.90
56076;DHT22;41951;49.022;12.066;2024-01-25T04:35:09;7.60;99.90
56076;DHT22;41951;49.022;12.066;2024-01-25T04:37:35;7.60;99.90
56076;DHT22;41951;49.022;12.066;2024-01-25T04:40:01;7.60;99.90
56076;DHT22;41951;49.022;12.066;2024-01-25T04:42:27;7.60;99.90
56076;DHT22;41951;49.022;12.066;2024-01-25T04:44:56;7.60;99.90
56076;DHT22;41951;49.022;12.066;2024-01-25T04:47:22;7.60;99.90
56076;DHT22;41951;49.022;12.066;2024-01-25T04:49:48;7.50;99.90
56076;DHT22;41951;49.022;12.066;2024-01-25T04:52:13;7.60;99.90
56076;DHT22;41951;49.022;12.066;2024-01-25T04:54:39;7.60;99.90
56076;DHT22;41951;49.022;12.066;2024-01-25T04:57:04;7.60;99.90
56076;DHT22;41951;49.022;12.066;2024-01-25T04:59:32;7.60;99.90
56076;DHT22;41951;49.022;12.066;2024-01-25T05:01:59;7.60;99.90
56076;DHT22;41951;49.022;12.066;2024-01-25T05:04:24;7.60;99.90
56076;DHT22;41951;49.022;12.066;2024-01-25T05:06:50;7.50;99.90
56076;DHT22;41951;49.022;12.066;2024-01-25T05:09:16;7.60;99.90
56076;DHT22;41951;49.022;12.066;2024-01-25T05:11:41;7.50;99.90
56076;DHT22;41951;49.022;12.066;2024-01-25T05:14:07;7.60;99.90
56076;DHT22;41951;49.022;12.066;2024-01-25T05:16:33;7.60;99.90
56076;DHT22;41951;49.022;12.066;2024-01-25T05:18:58;7.60;99.90
56076;DHT22;41951;49.022;12.066;2024-01-25T05:21:25;7.60;99.90
56076;DHT22;41951;49.022;12.066;2024-01-25T05:23:51;7.60;99.90
56076;DHT22;41951;49.022;12.066;2024-01-25T05:26:16;7.60;99.90
56076;DHT22;41951;49.022;12.066;2024-01-25T05:28:42;7.50;99.90
56076;DHT22;41951;49.022;12.066;2024-01-25T05:31:08;7.60;99.90
56076;DHT22;41951;49.022;12.066;2024-01-25T05:33:38;7.50;99.90
56076;DHT22;41951;49.022;12.066;2024-01-25T05:36:05;7.50;99.90
56076;DHT22;41951;49.022;12.066;2024-01-25T05:38:31;7.50;99.90
56076;DHT22;41951;49.022;12.066;2024-01-25T05:40:57;7.50;99.90
56076;DHT22;41951;49.022;12.066;2024-01-25T05:43:23;7.50;99.90
56076;DHT22;41951;49.022;12.066;2024-01-25T05:45:49;7.40;99.90
56076;DHT22;41951;49.022;12.066;2024-01-25T05:48:15;7.40;99.90
56076;DHT22;41951;49.022;12.066;2024-01-25T05:50:40;7.40;99.90
56076;DHT22;41951;49.022;12.066;2024-01-25T05:53:06;7.40;99.90
56076;DHT22;41951;49.022;12.066;2024-01-25T05:55:31;7.30;99.90
56076;DHT22;41951;49.022;12.066;2024-01-25T05:57:57;7.30;99.90
56076;DHT22;41951;49.022;12.066;2024-01-25T06:00:23;7.30;99.90
56076;DHT22;41951;49.022;12.066;2024-01-25T06:02:48;7.30;99.90
56076;DHT22;41951;49.022;12.066;2024-01-25T06:05:14;7.30;99.90
56076;DHT22;41951;49.022;12.066;2024-01-25T06:07:40;7.20;99.90
56076;DHT22;41951;49.022;12.066;2024-01-25T06:10:07;7.20;99.90
56076;DHT22;41951;49.022;12.066;2024-01-25T06:12:32;7.20;99.90
56076;DHT22;41951;49.022;12.066;2024-01-25T06:14:58;7.20;99.90
56076;DHT22;41951;49.022;12.066;2024-01-25T06:17:24;7.20;99.90
56076;DHT22;41951;49.022;12.066;2024-01-25T06:19:49;7.20;99.90
56076;DHT22;41951;49.022;12.066;2024-01-25T06:22:15;7.20;99.90
56076;DHT22;41951;49.022;12.066;2024-01-25T06:24:42;7.20;99.90
56076;DHT22;41951;49.022;12.066;2024-01-25T06:27:09;7.20;99.90
56076;DHT22;41951;49.022;12.066;2024-01-25T06:29:35;7.20;99.90
56076;DHT22;41951;49.022;12.066;2024-01-25T06:32:01;7.20;99.90
56076;DHT22;41951;49.022;12.066;2024-01-25T06:34:26;7.20;99.90
56076;DHT22;41951;49.022;12.066;2024-01-25T06:36:52;7.20;99.90
56076;DHT22;41951;49.022;12.066;2024-01-25T06:39:17;7.20;99.90
56076;DHT22;41951;49.022;12.066;2024-01-25T06:41:43;7.20;99.90
56076;DHT22;41951;49.022;12.066;2024-01-25T06:44:08;7.20;99.90
56076;DHT22;41951;49.022;12.066;2024-01-25T06:46:34;7.20;99.90
56076;DHT22;41951;49.022;12.066;2024-01-25T06:49:00;7.20;99.90
56076;DHT22;41951;49.022;12.066;2024-01-25T06:51:26;7.20;99.90
56076;DHT22;41951;49.022;12.066;2024-01-25T06:53:51;7.10;99.90
56076;DHT22;41951;49.022;12.066;2024-01-25T06:56:17;7.20;99.90
56076;DHT22;41951;49.022;12.066;2024-01-25T06:58:42;7.10;99.90
56076;DHT22;41951;49.022;12.066;2024-01-25T07:01:08;7.10;99.90
56076;DHT22;41951;49.022;12.066;2024-01-25T07:03:34;7.10;99.90
56076;DHT22;41951;49.022;12.066;2024-01-25T07:06:00;7.10;99.90
56076;DHT22;41951;49.022;12.066;2024-01-25T07:08:26;7.10;99.90
56076;DHT22;41951;49.022;12.066;2024-01-25T07:10:51;7.10;99.90
56076;DHT22;41951;49.022;12.066;2024-01-25T07:13:17;7.10;99.90
56076;DHT22;41951;49.022;12.066;2024-01-25T07:15:42;7.00;99.90
56076;DHT22;41951;49.022;12.066;2024-01-25T07:18:08;7.00;99.90
56076;DHT22;41951;49.022;12.066;2024-01-25T07:20:33;7.00;99.90
56076;DHT22;41951;49.022;12.066;2024-01-25T07:22:59;7.00;99.90
56076;DHT22;41951;49.022;12.066;2024-01-25T07:25:24;7.00;99.90
56076;DHT22;41951;49.022;12.066;2024-01-25T07:27:50;7.00;99.90
56076;DHT22;41951;49.022;12.066;2024-01-25T07:30:16;7.00;99.90
56076;DHT22;41951;49.022;12.066;2024-01-25T07:32:42;7.00;99.90
56076;DHT22;41951;49.022;12.066;2024-01-25T07:35:10;6.90;99.90
56076;DHT22;41951;49.022;12.066;2024-01-25T07:37:36;6.90;99.90
56076;DHT22;41951;49.022;12.066;2024-01-25T07:40:02;6.90;99.90
56076;DHT22;41951;49.022;12.066;2024-01-25T07:42:32;6.90;99.90
56076;DHT22;41951;49.022;12.066;2024-01-25T07:44:57;6.80;99.90
56076;DHT22;41951;49.022;12.066;2024-01-25T07:47:23;6.80;99.90
56076;DHT22;41951;49.022;12.066;2024-01-25T07:49:51;6.90;99.90
56076;DHT22;41951;49.022;12.066;2024-01-25T07:52:17;6.80;99.90
56076;DHT22;41951;49.022;12.066;2024-01-25T07:54:42;6.90;99.90
56076;DHT22;41951;49.022;12.066;2024-01-25T07:57:09;6.90;99.90
56076;DHT22;41951;49.022;12.066;2024-01-25T07:59:34;6.90;99.90
56076;DHT22;41951;49.022;12.066;2024-01-25T08:02:00;6.90;99.90
56076;DHT22;41951;49.022;12.066;2024-01-25T08:04:26;6.90;99.90
56076;DHT22;41951;49.022;12.066;2024-01-25T08:06:52;7.00;99.90
56076;DHT22;41951;49.022;12.066;2024-01-25T08:09:17;7.00;99.90
56076;DHT22;41951;49.022;12.066;2024-01-25T08:11:44;7.00;99.90
56076;DHT22;41951;49.022;12.066;2024-01-25T08:14:10;7.00;99.90
56076;DHT22;41951;49.022;12.066;2024-01-25T08:16:36;7.10;99.90
56076;DHT22;41951;49.022;12.066;2024-01-25T08:19:02;7.20;99.90
56076;DHT22;41951;49.022;12.066;2024-01-25T08:21:28;7.20;99.90
56076;DHT22;41951;49.022;12.066;2024-01-25T08:23:53;7.20;99.90
56076;DHT22;41951;49.022;12.066;2024-01-25T08:26:19;7.20;99.90
56076;DHT22;41951;49.022;12.066;2024-01-25T08:28:46;7.30;99.90
56076;DHT22;41951;49.022;12.066;2024-01-25T08:31:12;7.30;99.90
56076;DHT22;41951;49.022;12.066;2024-01-25T08:33:39;7.40;99.90
56076;DHT22;41951;49.022;12.066;2024-01-25T08:36:09;7.40;99.90
56076;DHT22;41951;49.022;12.066;2024-01-25T08:38:35;7.50;99.90
56076;DHT22;41951;49.022;12.066;2024-01-25T08:41:01;7.50;99.90
56076;DHT22;41951;49.022;12.066;2024-01-25T08:43:27;7.40;99.90
56076;DHT22;41951;49.022;12.066;2024-01-25T08:45:52;7.40;99.90
56076;DHT22;41951;49.022;12.066;2024-01-25T08:48:18;7.40;99.90
56076;DHT22;41951;49.022;12.066;2024-01-25T08:50:43;7.40;99.90
56076;DHT22;41951;49.022;12.066;2024-01-25T08:53:09;7.40;99.90
56076;DHT22;41951;49.022;12.066;2024-01-25T08:55:35;7.40;99.90
56076;DHT22;41951;49.022;12.066;2024-01-25T08:58:01;7.40;99.90
56076;DHT22;41951;49.022;12.066;2024-01-25T09:00:26;7.40;99.90
56076;DHT22;41951;49.022;12.066;2024-01-25T09:02:52;7.40;99.90
56076;DHT22;41951;49.022;12.066;2024-01-25T09:05:17;7.40;99.90
56076;DHT22;41951;49.022;12.066;2024-01-25T09:07:43;7.40;99.90
56076;DHT22;41951;49.022;12.066;2024-01-25T09:10:09;7.50;99.90
56076;DHT22;41951;49.022;12.066;2024-01-25T09:12:35;7.50;99.90
56076;DHT22;41951;49.022;12.066;2024-01-25T09:15:01;7.60;99.90
56076;DHT22;41951;49.022;12.066;2024-01-25T09:17:28;7.50;99.90
56076;DHT22;41951;49.022;12.066;2024-01-25T09:19:53;7.50;99.90
56076;DHT22;41951;49.022;12.066;2024-01-25T09:22:19;7.50;99.90
56076;DHT22;41951;49.022;12.066;2024-01-25T09:24:48;7.50;99.90
56076;DHT22;41951;49.022;12.066;2024-01-25T09:27:14;7.50;99.90
56076;DHT22;41951;49.022;12.066;2024-01-25T09:29:40;7.50;99.90
56076;DHT22;41951;49.022;12.066;2024-01-25T09:32:07;7.50;99.90
56076;DHT22;41951;49.022;12.066;2024-01-25T09:34:38;7.50;99.90
56076;DHT22;41951;49.022;12.066;2024-01-25T09:37:05;7.50;99.90
56076;DHT22;41951;49.022;12.066;2024-01-25T09:39:31;7.50;99.90
56076;DHT22;41951;49.022;12.066;2024-01-25T09:41:57;7.50;99.90
56076;DHT22;41951;49.022;12.066;2024-01-25T09:44:23;7.50;99.90
56076;DHT22;41951;49.022;12.066;2024-01-25T09:46:49;7.50;99.90
56076;DHT22;41951;49.022;12.066;2024-01-25T09:49:16;7.60;99.90
56076;DHT22;41951;49.022;12.066;2024-01-25T09:51:43;7.60;99.90
56076;DHT22;41951;49.022;12.066;2024-01-25T09:54:09;7.60;99.90
56076;DHT22;41951;49.022;12.066;2024-01-25T09:56:35;7.70;99.90
56076;DHT22;41951;49.022;12.066;2024-01-25T09:59:01;7.60;99.90
56076;DHT22;41951;49.022;12.066;2024-01-25T10:01:27;7.70;99.90
56076;DHT22;41951;49.022;12.066;2024-01-25T10:03:54;7.70;99.90
56076;DHT22;41951;49.022;12.066;2024-01-25T10:06:23;7.70;99.90
56076;DHT22;41951;49.022;12.066;2024-01-25T10:08:49;7.70;99.90
56076;DHT22;41951;49.022;12.066;2024-01-25T10:11:15;7.80;99.90
56076;DHT22;41951;49.022;12.066;2024-01-25T10:13:44;7.80;99.90
56076;DHT22;41951;49.022;12.066;2024-01-25T10:16:12;7.80;99.90
56076;DHT22;41951;49.022;12.066;2024-01-25T10:18:38;7.80;99.90
56076;DHT22;41951;49.022;12.066;2024-01-25T10:21:05;7.90;99.90
56076;DHT22;41951;49.022;12.066;2024-01-25T10:23:31;7.80;99.90
56076;DHT22;41951;49.022;12.066;2024-01-25T10:25:58;7.90;99.90
56076;DHT22;41951;49.022;12.066;2024-01-25T10:28:24;7.80;99.90
56076;DHT22;41951;49.022;12.066;2024-01-25T10:30:51;7.80;99.90
56076;DHT22;41951;49.022;12.066;2024-01-25T10:33:17;7.80;99.90
56076;DHT22;41951;49.022;12.066;2024-01-25T10:35:44;7.80;99.90
56076;DHT22;41951;49.022;12.066;2024-01-25T10:38:18;7.80;99.90
56076;DHT22;41951;49.022;12.066;2024-01-25T10:40:46;7.90;99.90
56076;DHT22;41951;49.022;12.066;2024-01-25T10:43:12;7.90;99.90
56076;DHT22;41951;49.022;12.066;2024-01-25T10:45:37;8.10;99.90
56076;DHT22;41951;49.022;12.066;2024-01-25T10:48:04;8.10;99.90
56076;DHT22;41951;49.022;12.066;2024-01-25T10:50:30;8.00;99.90
56076;DHT22;41951;49.022;12.066;2024-01-25T10:52:56;8.10;99.90
56076;DHT22;41951;49.022;12.066;2024-01-25T10:55:22;8.10;99.90
56076;DHT22;41951;49.022;12.066;2024-01-25T10:57:48;8.10;99.90
56076;DHT22;41951;49.022;12.066;2024-01-25T11:00:15;8.10;99.90
56076;DHT22;41951;49.022;12.066;2024-01-25T11:02:44;8.10;99.90
56076;DHT22;41951;49.022;12.066;2024-01-25T11:05:15;8.10;99.90
56076;DHT22;41951;49.022;12.066;2024-01-25T11:07:50;8.10;99.90
56076;DHT22;41951;49.022;12.066;2024-01-25T11:10:17;8.20;99.90
56076;DHT22;41951;49.022;12.066;2024-01-25T11:15:30;8.20;99.90
56076;DHT22;41951;49.022;12.066;2024-01-25T11:17:57;8.20;99.90
56076;DHT22;41951;49.022;12.066;2024-01-25T11:20:25;8.20;99.90
56076;DHT22;41951;49.022;12.066;2024-01-25T11:22:58;8.30;99.90
56076;DHT22;41951;49.022;12.066;2024-01-25T11:25:27;8.30;99.90
56076;DHT22;41951;49.022;12.066;2024-01-25T11:27:54;8.30;99.90
56076;DHT22;41951;49.022;12.066;2024-01-25T11:30:20;8.30;99.90
56076;DHT22;41951;49.022;12.066;2024-01-25T11:32:46;8.30;99.90
56076;DHT22;41951;49.022;12.066;2024-01-25T11:35:13;8.30;99.90
56076;DHT22;41951;49.022;12.066;2024-01-25T11:37:45;8.40;99.90
56076;DHT22;41951;49.022;12.066;2024-01-25T11:40:12;8.50;99.90
56076;DHT22;41951;49.022;12.066;2024-01-25T11:42:39;8.50;99.90
56076;DHT22;41951;49.022;12.066;2024-01-25T11:45:06;8.40;99.90
56076;DHT22;41951;49.022;12.066;2024-01-25T11:47:33;8.50;99.90
56076;DHT22;41951;49.022;12.066;2024-01-25T11:49:59;8.50;99.90
56076;DHT22;41951;49.022;12.066;2024-01-25T11:52:24;8.50;99.90
56076;DHT22;41951;49.022;12.066;2024-01-25T11:54:51;8.50;99.90
56076;DHT22;41951;49.022;12.066;2024-01-25T11:57:18;8.50;99.90
56076;DHT22;41951;49.022;12.066;2024-01-25T11:59:44;8.60;99.90
56076;DHT22;41951;49.022;12.066;2024-01-25T12:02:12;8.50;99.90
56076;DHT22;41951;49.022;12.066;2024-01-25T12:04:39;8.50;99.90
56076;DHT22;41951;49.022;12.066;2024-01-25T12:07:04;8.40;99.90
56076;DHT22;41951;49.022;12.066;2024-01-25T12:09:30;8.30;99.90
56076;DHT22;41951;49.022;12.066;2024-01-25T12:11:55;8.30;99.90
56076;DHT22;41951;49.022;12.066;2024-01-25T12:14:21;8.30;99.90
56076;DHT22;41951;49.022;12.066;2024-01-25T12:16:49;8.30;99.90
56076;DHT22;41951;49.022;12.066;2024-01-25T12:19:15;8.40;99.90
56076;DHT22;41951;49.022;12.066;2024-01-25T12:21:44;8.40;99.90
56076;DHT22;41951;49.022;12.066;2024-01-25T12:24:10;8.50;99.90
56076;DHT22;41951;49.022;12.066;2024-01-25T12:26:36;8.40;99.90
56076;DHT22;41951;49.022;12.066;2024-01-25T12:29:02;8.40;99.90
56076;DHT22;41951;49.022;12.066;2024-01-25T12:31:28;8.50;99.90
56076;DHT22;41951;49.022;12.066;2024-01-25T12:33:54;8.50;99.90
56076;DHT22;41951;49.022;12.066;2024-01-25T12:36:19;8.50;99.90
56076;DHT22;41951;49.022;12.066;2024-01-25T12:38:45;8.50;99.90
56076;DHT22;41951;49.022;12.066;2024-01-25T12:41:10;8.50;99.90
56076;DHT22;41951;49.022;12.066;2024-01-25T12:43:36;8.50;99.90
56076;DHT22;41951;49.022;12.066;2024-01-25T12:46:02;8.60;99.90
56076;DHT22;41951;49.022;12.066;2024-01-25T12:48:27;8.60;99.90
56076;DHT22;41951;49.022;12.066;2024-01-25T12:50:53;8.70;99.90
56076;DHT22;41951;49.022;12.066;2024-01-25T12:53:19;8.60;99.90
56076;DHT22;41951;49.022;12.066;2024-01-25T12:55:44;8.60;99.90
56076;DHT22;41951;49.022;12.066;2024-01-25T12:58:10;8.60;99.90
56076;DHT22;41951;49.022;12.066;2024-01-25T13:00:35;8.50;99.90
56076;DHT22;41951;49.022;12.066;2024-01-25T13:03:01;8.60;99.90
56076;DHT22;41951;49.022;12.066;2024-01-25T13:05:27;8.50;99.90
56076;DHT22;41951;49.022;12.066;2024-01-25T13:07:53;8.60;99.90
56076;DHT22;41951;49.022;12.066;2024-01-25T13:10:19;8.60;99.90
56076;DHT22;41951;49.022;12.066;2024-01-25T13:12:44;8.70;99.90
56076;DHT22;41951;49.022;12.066;2024-01-25T13:15:10;8.70;99.90
56076;DHT22;41951;49.022;12.066;2024-01-25T13:17:35;8.70;99.90
56076;DHT22;41951;49.022;12.066;2024-01-25T13:20:02;8.70;99.90
56076;DHT22;41951;49.022;12.066;2024-01-25T13:22:28;8.80;99.90
56076;DHT22;41951;49.022;12.066;2024-01-25T13:24:55;8.90;99.90
56076;DHT22;41951;49.022;12.066;2024-01-25T13:27:20;9.20;99.90
56076;DHT22;41951;49.022;12.066;2024-01-25T13:29:46;9.80;99.90
56076;DHT22;41951;49.022;12.066;2024-01-25T13:32:12;10.20;99.90
56076;DHT22;41951;49.022;12.066;2024-01-25T13:34:37;10.10;99.90
56076;DHT22;41951;49.022;12.066;2024-01-25T13:37:03;9.70;99.90
56076;DHT22;41951;49.022;12.066;2024-01-25T13:39:28;9.50;99.90
56076;DHT22;41951;49.022;12.066;2024-01-25T13:41:54;9.40;99.90
56076;DHT22;41951;49.022;12.066;2024-01-25T13:44:21;9.30;99.90
56076;DHT22;41951;49.022;12.066;2024-01-25T13:46:47;9.20;99.90
56076;DHT22;41951;49.022;12.066;2024-01-25T13:49:13;9.00;99.90
56076;DHT22;41951;49.022;12.066;2024-01-25T13:51:38;8.90;99.90
56076;DHT22;41951;49.022;12.066;2024-01-25T13:54:04;8.90;99.90
56076;DHT22;41951;49.022;12.066;2024-01-25T13:56:30;8.70;99.90
56076;DHT22;41951;49.022;12.066;2024-01-25T13:58:55;8.70;99.90
56076;DHT22;41951;49.022;12.066;2024-01-25T14:01:21;8.70;99.90
56076;DHT22;41951;49.022;12.066;2024-01-25T14:03:46;8.70;99.90
56076;DHT22;41951;49.022;12.066;2024-01-25T14:06:12;8.70;99.90
56076;DHT22;41951;49.022;12.066;2024-01-25T14:08:37;8.70;99.90
56076;DHT22;41951;49.022;12.066;2024-01-25T14:11:04;11.30;99.90
56076;DHT22;41951;49.022;12.066;2024-01-25T14:13:32;8.60;99.90
56076;DHT22;41951;49.022;12.066;2024-01-25T14:15:57;8.60;99.90
56076;DHT22;41951;49.022;12.066;2024-01-25T14:18:26;8.60;99.90
56076;DHT22;41951;49.022;12.066;2024-01-25T14:20:52;8.60;99.90
56076;DHT22;41951;49.022;12.066;2024-01-25T14:23:17;8.50;99.90
56076;DHT22;41951;49.022;12.066;2024-01-25T14:25:43;8.60;99.90
56076;DHT22;41951;49.022;12.066;2024-01-25T14:28:11;8.60;99.90
56076;DHT22;41951;49.022;12.066;2024-01-25T14:30:37;8.60;99.90
56076;DHT22;41951;49.022;12.066;2024-01-25T14:33:02;8.60;99.90
56076;DHT22;41951;49.022;12.066;2024-01-25T14:35:29;8.60;99.90
56076;DHT22;41951;49.022;12.066;2024-01-25T14:37:55;8.50;99.90
56076;DHT22;41951;49.022;12.066;2024-01-25T14:40:22;8.60;99.90
56076;DHT22;41951;49.022;12.066;2024-01-25T14:42:47;8.60;99.90
56076;DHT22;41951;49.022;12.066;2024-01-25T14:45:13;8.50;99.90
56076;DHT22;41951;49.022;12.066;2024-01-25T14:47:38;8.50;99.90
56076;DHT22;41951;49.022;12.066;2024-01-25T14:50:05;8.50;99.90
56076;DHT22;41951;49.022;12.066;2024-01-25T14:52:31;8.40;99.90
56076;DHT22;41951;49.022;12.066;2024-01-25T14:55:00;8.40;99.90
56076;DHT22;41951;49.022;12.066;2024-01-25T14:57:26;8.40;99.90
56076;DHT22;41951;49.022;12.066;2024-01-25T14:59:52;8.40;99.90
56076;DHT22;41951;49.022;12.066;2024-01-25T15:02:18;8.40;99.90
56076;DHT22;41951;49.022;12.066;2024-01-25T15:04:43;8.40;99.90
56076;DHT22;41951;49.022;12.066;2024-01-25T15:07:09;8.40;99.90
56076;DHT22;41951;49.022;12.066;2024-01-25T15:09:35;8.30;99.90
56076;DHT22;41951;49.022;12.066;2024-01-25T15:12:00;8.30;99.90
56076;DHT22;41951;49.022;12.066;2024-01-25T15:14:26;8.30;99.90
56076;DHT22;41951;49.022;12.066;2024-01-25T15:16:51;8.20;99.90
56076;DHT22;41951;49.022;12.066;2024-01-25T15:19:17;8.20;99.90
56076;DHT22;41951;49.022;12.066;2024-01-25T15:21:43;8.20;99.90
56076;DHT22;41951;49.022;12.066;2024-01-25T15:24:09;8.20;99.90